createdAt,value
2022-12-14T00:00:42.879Z,76.17
2022-12-14T00:01:38.103Z,76.42
2022-12-14T00:02:33.521Z,76.90
2022-12-14T00:03:28.700Z,75.93
2022-12-14T00:04:23.900Z,76.90
2022-12-14T00:05:19.141Z,77.39
2022-12-14T00:06:14.341Z,76.90
2022-12-14T00:07:09.692Z,77.39
2022-12-14T00:08:04.915Z,77.15
2022-12-14T00:09:00.269Z,76.90
2022-12-14T00:09:55.492Z,77.15
2022-12-14T00:10:50.716Z,76.90
2022-12-14T00:11:45.978Z,76.17
2022-12-14T00:12:41.325Z,76.90
2022-12-14T00:13:36.427Z,77.15
2022-12-14T00:14:31.764Z,77.15
2022-12-14T00:15:27.086Z,77.15
2022-12-14T00:16:22.328Z,76.66
2022-12-14T00:17:17.522Z,77.15
2022-12-14T00:18:14.116Z,77.15
2022-12-14T00:19:08.026Z,78.12
2022-12-14T00:20:03.382Z,81.05
2022-12-14T00:20:58.472Z,76.17
2022-12-14T00:21:53.725Z,76.90
2022-12-14T00:22:48.939Z,76.66
2022-12-14T00:23:44.189Z,77.15
2022-12-14T00:24:39.969Z,78.37
2022-12-14T00:25:35.187Z,75.20
2022-12-14T00:26:30.422Z,75.68
2022-12-14T00:27:25.684Z,76.90
2022-12-14T00:28:20.881Z,76.66
2022-12-14T00:29:16.111Z,79.35
2022-12-14T00:30:11.337Z,77.39
2022-12-14T00:31:06.806Z,76.66
2022-12-14T00:32:01.897Z,84.47
2022-12-14T00:32:57.019Z,76.17
2022-12-14T00:33:52.214Z,77.15
2022-12-14T00:34:47.474Z,76.66
2022-12-14T00:35:42.684Z,76.42
2022-12-14T00:36:37.916Z,76.42
2022-12-14T00:37:33.167Z,76.66
2022-12-14T00:38:28.839Z,76.66
2022-12-14T00:39:23.599Z,76.90
2022-12-14T00:40:18.852Z,77.88
2022-12-14T00:41:14.223Z,76.17
2022-12-14T00:42:09.553Z,75.93
2022-12-14T00:43:04.643Z,101.32
2022-12-14T00:44:00.001Z,76.42
2022-12-14T00:44:55.225Z,77.15
2022-12-14T00:45:50.576Z,76.66
2022-12-14T00:46:46.083Z,76.17
2022-12-14T00:47:41.088Z,76.42
2022-12-14T00:48:36.245Z,77.15
2022-12-14T00:49:31.744Z,77.39
2022-12-14T00:50:26.817Z,76.17
2022-12-14T00:51:22.076Z,76.66
2022-12-14T00:52:17.288Z,76.66
2022-12-14T00:53:12.643Z,76.66
2022-12-14T00:54:07.993Z,77.39
2022-12-14T00:55:03.249Z,77.39
2022-12-14T00:55:59.683Z,76.42
2022-12-14T00:56:55.072Z,76.90
2022-12-14T00:57:50.163Z,77.88
2022-12-14T00:58:45.508Z,77.15
2022-12-14T00:59:40.739Z,77.64
2022-12-14T01:00:35.821Z,76.90
2022-12-14T01:01:30.945Z,77.39
2022-12-14T01:02:25.994Z,76.66
2022-12-14T01:03:21.056Z,76.66
2022-12-14T01:04:16.141Z,76.42
2022-12-14T01:05:11.058Z,74.95
2022-12-14T01:06:06.157Z,75.68
2022-12-14T01:07:02.738Z,75.44
2022-12-14T01:07:57.813Z,76.17
2022-12-14T01:08:53.152Z,77.64
2022-12-14T01:09:48.001Z,79.10
2022-12-14T01:10:43.095Z,76.90
2022-12-14T01:11:38.199Z,78.12
2022-12-14T01:12:33.395Z,76.66
2022-12-14T01:13:28.990Z,75.93
2022-12-14T01:14:23.562Z,74.95
2022-12-14T01:15:18.651Z,80.32
2022-12-14T01:16:13.893Z,76.17
2022-12-14T01:17:08.770Z,76.66
2022-12-14T01:18:03.794Z,76.42
2022-12-14T01:18:58.920Z,76.42
2022-12-14T01:19:54.022Z,76.90
2022-12-14T01:20:49.185Z,79.35
2022-12-14T01:21:45.597Z,76.90
2022-12-14T01:22:40.668Z,76.66
2022-12-14T01:23:35.650Z,76.66
2022-12-14T01:24:30.746Z,76.42
2022-12-14T01:25:25.725Z,76.17
2022-12-14T01:26:20.814Z,76.42
2022-12-14T01:27:15.915Z,77.64
2022-12-14T01:28:11.055Z,76.66
2022-12-14T01:29:06.157Z,77.15
2022-12-14T01:30:01.232Z,76.17
2022-12-14T01:30:56.379Z,76.90
2022-12-14T01:31:51.341Z,77.15
2022-12-14T01:32:46.834Z,84.47
2022-12-14T01:33:42.050Z,76.17
2022-12-14T01:34:37.280Z,76.17
2022-12-14T01:35:33.072Z,76.17
2022-12-14T01:36:28.332Z,77.15
2022-12-14T01:37:24.111Z,77.39
2022-12-14T01:38:19.316Z,78.12
2022-12-14T01:39:14.726Z,78.12
2022-12-14T01:40:10.539Z,79.10
2022-12-14T01:41:05.800Z,76.66
2022-12-14T01:42:00.994Z,77.15
2022-12-14T01:42:57.495Z,78.37
2022-12-14T01:43:52.738Z,77.88
2022-12-14T01:44:48.537Z,76.66
2022-12-14T01:45:43.829Z,76.90
2022-12-14T01:46:39.106Z,76.66
2022-12-14T01:47:34.949Z,76.42
2022-12-14T01:48:30.182Z,75.68
2022-12-14T01:49:26.081Z,76.66
2022-12-14T01:50:21.220Z,76.66
2022-12-14T01:51:16.452Z,75.93
2022-12-14T01:52:12.250Z,76.17
2022-12-14T01:53:07.468Z,77.64
2022-12-14T01:54:02.950Z,77.15
2022-12-14T01:54:59.031Z,76.90
2022-12-14T01:55:54.268Z,80.08
2022-12-14T01:56:50.092Z,76.66
2022-12-14T01:57:45.300Z,77.39
2022-12-14T01:58:40.818Z,77.39
2022-12-14T01:59:36.467Z,76.66
2022-12-14T02:00:31.856Z,76.42
2022-12-14T02:01:27.726Z,77.39
2022-12-14T02:02:23.212Z,76.90
2022-12-14T02:03:18.376Z,76.90
2022-12-14T02:04:14.092Z,76.42
2022-12-14T02:05:09.405Z,76.42
2022-12-14T02:06:04.639Z,76.42
2022-12-14T02:07:01.538Z,76.90
2022-12-14T02:07:56.545Z,76.17
2022-12-14T02:08:52.141Z,81.05
2022-12-14T02:09:47.353Z,76.42
2022-12-14T02:10:42.610Z,76.17
2022-12-14T02:11:37.711Z,76.17
2022-12-14T02:12:32.680Z,77.15
2022-12-14T02:13:31.458Z,77.64
2022-12-14T02:14:26.457Z,77.88
2022-12-14T02:15:21.762Z,76.42
2022-12-14T02:16:17.750Z,76.42
2022-12-14T02:17:13.019Z,77.15
2022-12-14T02:18:08.196Z,78.61
2022-12-14T02:19:03.687Z,76.66
2022-12-14T02:19:59.337Z,76.42
2022-12-14T02:20:54.578Z,77.15
2022-12-14T02:21:49.823Z,76.42
2022-12-14T02:22:45.766Z,76.42
2022-12-14T02:23:40.982Z,76.66
2022-12-14T02:24:36.804Z,76.66
2022-12-14T02:25:32.012Z,76.90
2022-12-14T02:26:27.382Z,76.17
2022-12-14T02:27:23.059Z,77.15
2022-12-14T02:28:18.299Z,75.20
2022-12-14T02:29:13.512Z,76.90
2022-12-14T02:30:09.845Z,76.66
2022-12-14T02:31:05.183Z,77.15
2022-12-14T02:32:00.859Z,76.90
2022-12-14T02:32:56.049Z,76.66
2022-12-14T02:33:51.332Z,76.90
2022-12-14T02:34:47.105Z,76.42
2022-12-14T02:35:42.349Z,76.42
2022-12-14T02:36:37.716Z,76.90
2022-12-14T02:37:32.804Z,76.66
2022-12-14T02:38:28.036Z,78.86
2022-12-14T02:39:23.383Z,77.88
2022-12-14T02:40:18.735Z,75.68
2022-12-14T02:41:14.955Z,77.64
2022-12-14T02:42:10.161Z,76.42
2022-12-14T02:43:05.527Z,77.39
2022-12-14T02:44:01.185Z,76.66
2022-12-14T02:44:56.431Z,76.42
2022-12-14T02:45:51.683Z,76.66
2022-12-14T02:46:50.362Z,77.15
2022-12-14T02:47:41.929Z,76.66
2022-12-14T02:48:37.068Z,76.66
2022-12-14T02:49:32.018Z,76.66
2022-12-14T02:50:27.237Z,76.42
2022-12-14T02:51:22.228Z,76.66
2022-12-14T02:52:21.499Z,84.23
2022-12-14T02:53:16.763Z,76.66
2022-12-14T02:54:11.614Z,76.66
2022-12-14T02:55:06.684Z,77.15
2022-12-14T02:56:01.784Z,76.90
2022-12-14T02:56:56.873Z,76.42
2022-12-14T02:57:52.107Z,77.15
2022-12-14T02:58:47.073Z,77.15
2022-12-14T02:59:42.174Z,77.15
2022-12-14T03:00:37.404Z,76.66
2022-12-14T03:01:32.607Z,76.66
2022-12-14T03:02:27.602Z,76.90
2022-12-14T03:03:22.524Z,77.39
2022-12-14T03:04:17.550Z,76.90
2022-12-14T03:05:12.651Z,77.39
2022-12-14T03:06:07.951Z,77.15
2022-12-14T03:07:03.040Z,77.39
2022-12-14T03:07:58.102Z,77.64
2022-12-14T03:08:53.228Z,76.90
2022-12-14T03:09:48.292Z,76.90
2022-12-14T03:10:43.243Z,76.42
2022-12-14T03:11:38.344Z,78.61
2022-12-14T03:12:33.430Z,78.61
2022-12-14T03:13:28.728Z,77.15
2022-12-14T03:14:23.540Z,77.88
2022-12-14T03:15:18.607Z,76.17
2022-12-14T03:16:13.775Z,75.93
2022-12-14T03:17:08.828Z,77.15
2022-12-14T03:18:03.841Z,76.42
2022-12-14T03:18:58.823Z,76.66
2022-12-14T03:19:53.993Z,76.66
2022-12-14T03:20:51.090Z,77.64
2022-12-14T03:21:46.181Z,76.66
2022-12-14T03:22:41.171Z,77.64
2022-12-14T03:23:36.303Z,76.66
2022-12-14T03:24:31.287Z,77.39
2022-12-14T03:25:26.379Z,76.42
2022-12-14T03:26:21.462Z,77.39
2022-12-14T03:27:16.607Z,77.15
2022-12-14T03:28:11.700Z,77.15
2022-12-14T03:29:06.827Z,76.66
2022-12-14T03:30:01.865Z,77.39
2022-12-14T03:31:00.887Z,77.15
2022-12-14T03:31:52.346Z,76.66
2022-12-14T03:32:47.569Z,76.90
2022-12-14T03:33:42.801Z,77.64
2022-12-14T03:34:38.648Z,76.66
2022-12-14T03:35:33.863Z,76.66
2022-12-14T03:36:29.782Z,77.15
2022-12-14T03:37:24.877Z,76.17
2022-12-14T03:38:20.401Z,76.66
2022-12-14T03:39:16.198Z,76.42
2022-12-14T03:40:11.564Z,76.42
2022-12-14T03:41:06.909Z,76.66
2022-12-14T03:42:03.140Z,76.66
2022-12-14T03:42:58.400Z,76.90
2022-12-14T03:43:54.279Z,77.88
2022-12-14T03:44:50.098Z,76.66
2022-12-14T03:45:44.893Z,77.64
2022-12-14T03:46:40.709Z,76.90
2022-12-14T03:47:35.951Z,78.12
2022-12-14T03:48:31.768Z,89.84
2022-12-14T03:49:26.987Z,76.42
2022-12-14T03:50:22.346Z,96.68
2022-12-14T03:51:18.027Z,76.90
2022-12-14T03:52:13.257Z,78.37
2022-12-14T03:53:08.482Z,75.93
2022-12-14T03:54:04.942Z,85.94
2022-12-14T03:55:00.244Z,75.93
2022-12-14T03:55:56.022Z,79.10
2022-12-14T03:56:53.179Z,77.15
2022-12-14T03:57:46.474Z,76.90
2022-12-14T03:58:41.591Z,76.90
2022-12-14T03:59:36.616Z,77.39
2022-12-14T04:00:35.253Z,76.42
2022-12-14T04:01:30.576Z,77.88
2022-12-14T04:02:26.016Z,76.66
2022-12-14T04:03:21.664Z,77.39
2022-12-14T04:04:16.957Z,77.39
2022-12-14T04:05:12.178Z,75.20
2022-12-14T04:06:08.653Z,77.39
2022-12-14T04:07:03.880Z,77.88
2022-12-14T04:07:59.697Z,76.90
2022-12-14T04:08:55.055Z,76.17
2022-12-14T04:09:50.299Z,96.92
2022-12-14T04:10:46.094Z,89.36
2022-12-14T04:11:41.504Z,81.30
2022-12-14T04:12:37.411Z,77.39
2022-12-14T04:13:32.504Z,97.41
2022-12-14T04:14:27.752Z,95.21
2022-12-14T04:15:23.584Z,84.96
2022-12-14T04:16:18.846Z,120.36
2022-12-14T04:17:14.211Z,82.03
2022-12-14T04:18:09.340Z,104.98
2022-12-14T04:19:05.950Z,75.68
2022-12-14T04:20:01.320Z,76.42
2022-12-14T04:20:56.591Z,86.18
2022-12-14T04:21:52.363Z,106.20
2022-12-14T04:22:47.621Z,107.67
2022-12-14T04:23:42.819Z,97.90
2022-12-14T04:24:39.338Z,101.56
2022-12-14T04:25:34.570Z,100.59
2022-12-14T04:26:30.379Z,77.15
2022-12-14T04:27:25.606Z,90.58
2022-12-14T04:28:20.943Z,99.61
2022-12-14T04:29:16.636Z,101.81
2022-12-14T04:30:11.914Z,90.58
2022-12-14T04:31:07.814Z,95.95
2022-12-14T04:32:02.988Z,99.61
2022-12-14T04:32:58.454Z,88.62
2022-12-14T04:33:54.160Z,87.40
2022-12-14T04:34:49.353Z,87.16
2022-12-14T04:35:44.702Z,115.72
2022-12-14T04:36:40.120Z,88.38
2022-12-14T04:37:35.213Z,78.37
2022-12-14T04:38:30.601Z,77.88
2022-12-14T04:39:25.855Z,79.35
2022-12-14T04:40:21.077Z,79.59
2022-12-14T04:41:16.887Z,77.15
2022-12-14T04:42:12.118Z,76.90
2022-12-14T04:43:07.489Z,77.88
2022-12-14T04:44:02.610Z,76.66
2022-12-14T04:44:57.836Z,80.08
2022-12-14T04:45:52.855Z,99.12
2022-12-14T04:46:47.845Z,76.17
2022-12-14T04:47:42.952Z,76.66
2022-12-14T04:48:37.930Z,79.10
2022-12-14T04:49:33.053Z,76.42
2022-12-14T04:50:28.052Z,99.12
2022-12-14T04:51:23.182Z,81.30
2022-12-14T04:52:18.239Z,82.52
2022-12-14T04:53:13.351Z,94.24
2022-12-14T04:55:37.657Z,86.67
2022-12-14T04:56:31.003Z,77.15
2022-12-14T04:57:26.206Z,76.90
2022-12-14T04:58:21.460Z,77.15
2022-12-14T04:59:16.657Z,77.15
2022-12-14T05:00:12.007Z,81.05
2022-12-14T05:01:07.278Z,81.54
2022-12-14T05:02:02.708Z,82.03
2022-12-14T05:02:57.778Z,109.13
2022-12-14T05:03:53.006Z,77.39
2022-12-14T05:04:48.244Z,76.42
2022-12-14T05:05:43.562Z,83.74
2022-12-14T05:06:38.648Z,95.21
2022-12-14T05:07:33.897Z,80.57
2022-12-14T05:08:29.256Z,82.76
2022-12-14T05:09:24.346Z,107.91
2022-12-14T05:10:19.561Z,77.88
2022-12-14T05:11:50.222Z,77.88
2022-12-14T05:12:11.051Z,77.39
2022-12-14T05:13:05.359Z,103.76
2022-12-14T05:14:00.587Z,78.61
2022-12-14T05:14:55.806Z,78.12
2022-12-14T05:15:51.021Z,91.31
2022-12-14T05:16:48.976Z,80.08
2022-12-14T05:17:41.858Z,106.45
2022-12-14T05:18:36.974Z,89.60
2022-12-14T05:19:32.387Z,108.15
2022-12-14T05:20:27.648Z,87.65
2022-12-14T05:21:23.016Z,78.86
2022-12-14T05:22:18.192Z,79.10
2022-12-14T05:23:13.409Z,76.42
2022-12-14T05:24:08.636Z,89.11
2022-12-14T05:25:03.859Z,101.07
2022-12-14T05:25:59.071Z,79.35
2022-12-14T05:26:54.314Z,101.32
2022-12-14T05:27:49.644Z,90.09
2022-12-14T05:28:48.860Z,102.54
2022-12-14T05:29:41.012Z,78.86
2022-12-14T05:30:35.389Z,107.67
2022-12-14T05:31:30.586Z,83.01
2022-12-14T05:32:25.881Z,103.27
2022-12-14T05:33:21.142Z,89.36
2022-12-14T05:34:16.359Z,94.48
2022-12-14T05:35:11.702Z,83.50
2022-12-14T05:36:06.819Z,105.96
2022-12-14T05:37:02.076Z,106.20
2022-12-14T05:37:57.334Z,108.15
2022-12-14T05:38:52.536Z,87.89
2022-12-14T05:39:47.802Z,103.27
2022-12-14T05:40:43.042Z,106.69
2022-12-14T05:41:38.292Z,95.95
2022-12-14T05:42:33.550Z,110.60
2022-12-14T05:43:29.304Z,112.06
2022-12-14T05:44:24.077Z,88.62
2022-12-14T05:45:19.442Z,97.90
2022-12-14T05:46:14.580Z,114.75
2022-12-14T05:47:09.853Z,116.46
2022-12-14T05:48:05.119Z,104.98
2022-12-14T05:49:00.363Z,104.00
2022-12-14T05:49:55.594Z,90.33
2022-12-14T05:50:50.829Z,98.39
2022-12-14T05:51:46.075Z,99.37
2022-12-14T05:52:41.307Z,78.86
2022-12-14T05:53:36.560Z,102.78
2022-12-14T05:54:31.791Z,101.32
2022-12-14T05:55:27.162Z,117.92
2022-12-14T05:56:22.422Z,80.81
2022-12-14T05:57:17.501Z,103.03
2022-12-14T05:58:12.813Z,96.68
2022-12-14T05:59:08.019Z,82.28
2022-12-14T06:00:03.277Z,106.45
2022-12-14T06:00:58.527Z,81.30
2022-12-14T06:01:53.794Z,98.88
2022-12-14T06:02:49.022Z,99.12
2022-12-14T06:03:44.303Z,95.21
2022-12-14T06:04:39.519Z,86.43
2022-12-14T06:05:34.864Z,114.26
2022-12-14T06:06:29.966Z,99.61
2022-12-14T06:07:28.129Z,89.84
2022-12-14T06:08:20.422Z,100.83
2022-12-14T06:09:15.686Z,106.45
2022-12-14T06:10:10.907Z,87.89
2022-12-14T06:11:06.172Z,87.65
2022-12-14T06:12:01.432Z,88.13
2022-12-14T06:12:56.653Z,77.88
2022-12-14T06:13:51.906Z,114.26
2022-12-14T06:14:47.141Z,94.48
2022-12-14T06:15:42.568Z,103.27
2022-12-14T06:16:37.718Z,93.51
2022-12-14T06:17:32.931Z,85.45
2022-12-14T06:18:28.220Z,116.94
2022-12-14T06:19:23.458Z,112.79
2022-12-14T06:20:18.699Z,114.26
2022-12-14T06:21:13.953Z,105.22
2022-12-14T06:22:09.158Z,100.10
2022-12-14T06:23:04.381Z,105.47
2022-12-14T06:23:59.663Z,91.55
2022-12-14T06:24:54.856Z,88.87
2022-12-14T06:25:50.216Z,105.22
2022-12-14T06:26:45.377Z,89.11
2022-12-14T06:27:40.784Z,104.98
2022-12-14T06:28:36.069Z,116.21
2022-12-14T06:29:31.340Z,98.88
2022-12-14T06:30:26.592Z,110.35
2022-12-14T06:31:21.980Z,81.30
2022-12-14T06:32:17.111Z,80.32
2022-12-14T06:33:12.375Z,110.84
2022-12-14T06:34:07.604Z,116.94
2022-12-14T06:35:03.192Z,97.17
2022-12-14T06:35:58.268Z,100.34
2022-12-14T06:36:53.478Z,115.97
2022-12-14T06:37:48.858Z,114.26
2022-12-14T06:38:44.056Z,111.08
2022-12-14T06:39:39.330Z,101.32
2022-12-14T06:40:34.693Z,104.49
2022-12-14T06:41:30.214Z,113.53
2022-12-14T06:42:25.221Z,90.58
2022-12-14T06:43:20.570Z,111.33
2022-12-14T06:44:15.741Z,107.91
2022-12-14T06:45:11.114Z,104.00
2022-12-14T06:46:09.944Z,104.74
2022-12-14T06:47:02.727Z,107.91
2022-12-14T06:47:56.892Z,117.19
2022-12-14T06:48:52.205Z,99.37
2022-12-14T06:49:48.150Z,110.60
2022-12-14T06:50:43.323Z,104.74
2022-12-14T06:51:38.640Z,88.62
2022-12-14T06:52:33.974Z,103.27
2022-12-14T06:53:29.582Z,92.29
2022-12-14T06:54:24.646Z,107.18
2022-12-14T06:55:19.861Z,85.45
2022-12-14T06:56:15.175Z,106.20
2022-12-14T06:57:10.513Z,106.45
2022-12-14T06:58:05.828Z,97.17
2022-12-14T06:59:01.173Z,107.42
2022-12-14T06:59:56.486Z,116.46
2022-12-14T07:00:51.785Z,95.95
2022-12-14T07:01:50.169Z,95.95
2022-12-14T07:02:42.530Z,97.66
2022-12-14T07:03:37.741Z,107.42
2022-12-14T07:04:33.192Z,106.93
2022-12-14T07:05:28.353Z,90.82
2022-12-14T07:06:23.657Z,90.82
2022-12-14T07:07:18.973Z,111.33
2022-12-14T07:08:14.293Z,106.45
2022-12-14T07:09:09.620Z,103.76
2022-12-14T07:10:04.929Z,79.35
2022-12-14T07:11:02.355Z,116.46
2022-12-14T07:11:55.569Z,111.08
2022-12-14T07:12:50.921Z,98.63
2022-12-14T07:13:48.698Z,83.50
2022-12-14T07:14:41.775Z,111.08
2022-12-14T07:15:37.009Z,78.61
2022-12-14T07:16:32.328Z,106.45
2022-12-14T07:17:27.712Z,100.10
2022-12-14T07:18:23.104Z,103.52
2022-12-14T07:19:18.604Z,97.41
2022-12-14T07:20:13.825Z,107.42
2022-12-14T07:21:09.226Z,98.63
2022-12-14T07:22:04.645Z,91.80
2022-12-14T07:23:00.044Z,103.27
2022-12-14T07:23:55.472Z,106.93
2022-12-14T07:24:50.924Z,105.71
2022-12-14T07:25:45.893Z,101.07
2022-12-14T07:26:40.951Z,100.34
2022-12-14T07:27:35.995Z,103.52
2022-12-14T07:28:31.173Z,99.61
2022-12-14T07:29:31.108Z,92.77
2022-12-14T07:30:22.223Z,106.45
2022-12-14T07:31:16.316Z,97.90
2022-12-14T07:32:13.336Z,106.93
2022-12-14T07:33:08.317Z,84.47
2022-12-14T07:34:03.494Z,97.41
2022-12-14T07:34:58.472Z,99.37
2022-12-14T07:35:54.427Z,81.30
2022-12-14T07:36:49.828Z,87.65
2022-12-14T07:37:49.313Z,98.63
2022-12-14T07:38:40.801Z,88.38
2022-12-14T07:39:36.222Z,94.73
2022-12-14T07:40:31.476Z,87.65
2022-12-14T07:41:26.918Z,81.05
2022-12-14T07:42:22.301Z,91.31
2022-12-14T07:43:17.729Z,92.04
2022-12-14T07:44:14.538Z,98.14
2022-12-14T07:45:09.734Z,83.74
2022-12-14T07:46:04.628Z,93.75
2022-12-14T07:46:59.651Z,99.12
2022-12-14T07:47:54.898Z,103.27
2022-12-14T07:48:49.931Z,116.70
2022-12-14T07:49:44.939Z,88.62
2022-12-14T07:50:40.156Z,105.22
2022-12-14T07:51:35.107Z,95.95
2022-12-14T07:52:34.286Z,86.18
2022-12-14T07:53:26.563Z,93.26
2022-12-14T07:54:20.226Z,87.40
2022-12-14T07:55:17.453Z,84.72
2022-12-14T07:56:12.361Z,88.38
2022-12-14T07:57:07.424Z,96.92
2022-12-14T07:58:02.488Z,96.44
2022-12-14T07:58:57.942Z,106.93
2022-12-14T07:59:57.425Z,105.96
2022-12-14T08:00:48.984Z,110.35
2022-12-14T08:01:44.630Z,100.34
2022-12-14T08:02:39.958Z,114.26
2022-12-14T08:03:35.435Z,104.00
2022-12-14T08:04:30.967Z,105.96
2022-12-14T08:05:26.399Z,106.20
2022-12-14T08:06:21.788Z,97.41
2022-12-14T08:07:17.242Z,96.19
2022-12-14T08:08:12.609Z,99.85
2022-12-14T08:09:08.064Z,89.84
2022-12-14T08:10:03.491Z,109.62
2022-12-14T08:10:58.896Z,102.54
2022-12-14T08:11:53.858Z,84.96
2022-12-14T08:12:48.884Z,103.03
2022-12-14T08:13:44.024Z,96.19
2022-12-14T08:14:39.099Z,98.88
2022-12-14T08:15:34.114Z,87.89
2022-12-14T08:16:29.266Z,107.91
2022-12-14T08:17:24.242Z,95.95
2022-12-14T08:18:21.983Z,119.14
2022-12-14T08:19:17.172Z,94.24
2022-12-14T08:20:12.181Z,80.81
2022-12-14T08:21:07.212Z,90.09
2022-12-14T08:22:02.243Z,82.03
2022-12-14T08:22:57.286Z,111.82
2022-12-14T08:23:52.308Z,103.52
2022-12-14T08:24:49.624Z,101.32
2022-12-14T08:25:42.365Z,100.10
2022-12-14T08:26:37.329Z,95.70
2022-12-14T08:27:32.389Z,107.67
2022-12-14T08:28:27.677Z,109.86
2022-12-14T08:29:22.556Z,101.56
2022-12-14T08:30:17.976Z,99.37
2022-12-14T08:31:13.536Z,94.24
2022-12-14T08:32:08.877Z,102.29
2022-12-14T08:33:04.521Z,98.39
2022-12-14T08:33:59.946Z,94.48
2022-12-14T08:34:55.405Z,94.24
2022-12-14T08:35:50.976Z,101.32
2022-12-14T08:36:46.496Z,93.99
2022-12-14T08:37:47.327Z,97.17
2022-12-14T08:38:38.293Z,105.22
2022-12-14T08:39:32.665Z,103.03
2022-12-14T08:40:28.146Z,96.19
2022-12-14T08:41:27.562Z,83.98
2022-12-14T08:42:23.025Z,92.53
2022-12-14T08:43:23.341Z,99.61
2022-12-14T08:44:14.950Z,100.59
2022-12-14T08:45:09.455Z,94.48
2022-12-14T08:46:04.714Z,103.27
2022-12-14T08:47:00.329Z,95.21
2022-12-14T08:47:55.686Z,97.90
2022-12-14T08:48:51.095Z,101.32
2022-12-14T08:49:46.595Z,93.26
2022-12-14T08:50:42.238Z,103.76
2022-12-14T08:51:37.687Z,108.64
2022-12-14T08:52:33.193Z,89.84
2022-12-14T08:53:29.074Z,94.97
2022-12-14T08:54:24.154Z,98.63
2022-12-14T08:55:25.462Z,87.89
2022-12-14T08:56:15.262Z,82.03
2022-12-14T08:57:09.410Z,79.59
2022-12-14T08:58:05.531Z,94.73
2022-12-14T08:59:00.987Z,86.43
2022-12-14T09:00:01.827Z,82.03
2022-12-14T09:00:53.426Z,92.29
2022-12-14T09:01:47.938Z,97.90
2022-12-14T09:02:43.666Z,115.72
2022-12-14T09:03:39.076Z,95.95
2022-12-14T09:04:34.556Z,90.09
2022-12-14T09:05:30.272Z,84.72
2022-12-14T09:06:25.737Z,89.36
2022-12-14T09:07:21.208Z,88.38
2022-12-14T09:08:17.495Z,105.22
2022-12-14T09:09:16.322Z,103.52
2022-12-14T09:10:08.777Z,101.81
2022-12-14T09:11:04.355Z,85.45
2022-12-14T09:11:59.709Z,102.05
2022-12-14T09:12:55.466Z,94.73
2022-12-14T09:13:50.957Z,111.08
2022-12-14T09:14:46.702Z,78.37
2022-12-14T09:15:42.189Z,94.24
2022-12-14T09:16:37.769Z,100.34
2022-12-14T09:17:32.699Z,108.15
2022-12-14T09:18:28.149Z,77.39
2022-12-14T09:19:22.855Z,89.84
2022-12-14T09:20:17.959Z,97.41
2022-12-14T09:21:12.888Z,91.80
2022-12-14T09:22:08.157Z,106.20
2022-12-14T09:23:03.107Z,90.09
2022-12-14T09:23:59.861Z,85.21
2022-12-14T09:24:53.163Z,102.78
2022-12-14T09:25:48.405Z,84.23
2022-12-14T09:26:43.480Z,101.81
2022-12-14T09:27:38.609Z,110.84
2022-12-14T09:28:33.686Z,104.00
2022-12-14T09:29:29.417Z,99.61
2022-12-14T09:30:26.804Z,106.45
2022-12-14T09:31:20.355Z,77.88
2022-12-14T09:32:15.404Z,97.17
2022-12-14T09:33:10.581Z,81.54
2022-12-14T09:34:09.464Z,90.82
2022-12-14T09:35:05.118Z,92.29
2022-12-14T09:36:00.422Z,95.21
2022-12-14T09:36:56.188Z,105.96
2022-12-14T09:37:51.821Z,115.48
2022-12-14T09:38:51.225Z,85.21
2022-12-14T09:39:44.700Z,100.10
2022-12-14T09:40:39.220Z,88.13
2022-12-14T09:41:35.155Z,104.49
2022-12-14T09:42:30.481Z,82.03
2022-12-14T09:43:26.040Z,107.67
2022-12-14T09:44:21.736Z,87.65
2022-12-14T09:45:17.171Z,90.33
2022-12-14T09:46:13.098Z,94.97
2022-12-14T09:47:08.452Z,107.91
2022-12-14T09:48:03.939Z,95.95
2022-12-14T09:48:59.815Z,114.99
2022-12-14T09:49:55.280Z,98.14
2022-12-14T09:50:50.751Z,108.40
2022-12-14T09:51:47.092Z,99.61
2022-12-14T09:52:42.545Z,116.46
2022-12-14T09:53:38.434Z,95.70
2022-12-14T09:54:33.925Z,105.22
2022-12-14T09:55:29.417Z,104.25
2022-12-14T09:56:25.069Z,99.12
2022-12-14T09:57:20.714Z,96.92
2022-12-14T09:58:16.304Z,95.21
2022-12-14T09:59:11.633Z,97.90
2022-12-14T10:00:07.095Z,87.65
2022-12-14T10:01:02.655Z,91.55
2022-12-14T10:02:55.750Z,104.98
2022-12-14T10:03:50.307Z,111.33
2022-12-14T10:04:47.688Z,78.37
2022-12-14T10:05:41.341Z,95.46
2022-12-14T10:06:36.885Z,94.48
2022-12-14T10:07:35.767Z,104.25
2022-12-14T10:08:28.420Z,102.29
2022-12-14T10:09:23.883Z,86.18
2022-12-14T10:10:19.404Z,89.60
2022-12-14T10:11:14.901Z,84.72
2022-12-14T10:12:10.847Z,117.92
2022-12-14T10:13:06.383Z,100.34
2022-12-14T10:14:01.908Z,114.01
2022-12-14T10:14:58.139Z,83.98
2022-12-14T10:15:53.670Z,107.91
2022-12-14T10:16:52.079Z,104.49
2022-12-14T10:17:44.538Z,105.71
2022-12-14T10:18:58.846Z,77.15
2022-12-14T10:19:37.675Z,88.62
2022-12-14T10:20:31.977Z,100.10
2022-12-14T10:21:27.510Z,97.41
2022-12-14T10:22:23.713Z,104.74
2022-12-14T10:23:22.812Z,125.24
2022-12-14T10:24:14.426Z,108.89
2022-12-14T10:25:10.931Z,127.44
2022-12-14T10:26:06.254Z,128.42
2022-12-14T10:27:01.764Z,110.84
2022-12-14T10:28:12.717Z,93.51
2022-12-14T10:29:00.759Z,107.42
2022-12-14T10:29:48.403Z,113.04
2022-12-14T10:30:42.492Z,106.69
2022-12-14T10:31:37.917Z,85.69
2022-12-14T10:32:33.628Z,118.41
2022-12-14T10:33:29.023Z,119.38
2022-12-14T10:34:24.582Z,80.08
2022-12-14T10:35:20.297Z,121.34
2022-12-14T10:36:15.697Z,96.44
2022-12-14T10:37:11.368Z,125.00
2022-12-14T10:38:06.877Z,95.95
2022-12-14T10:39:02.401Z,97.41
2022-12-14T10:39:58.115Z,100.34
2022-12-14T10:40:53.688Z,107.91
2022-12-14T10:41:49.518Z,84.23
2022-12-14T10:42:49.342Z,118.41
2022-12-14T10:43:41.314Z,101.56
2022-12-14T10:44:37.022Z,97.17
2022-12-14T10:45:41.152Z,112.55
2022-12-14T10:46:29.608Z,100.34
2022-12-14T10:47:24.114Z,121.58
2022-12-14T10:48:19.931Z,121.83
2022-12-14T10:49:15.388Z,117.43
2022-12-14T10:50:10.936Z,85.69
2022-12-14T10:51:06.631Z,101.32
2022-12-14T10:52:02.130Z,92.29
2022-12-14T10:52:58.092Z,99.37
2022-12-14T10:53:53.515Z,97.17
2022-12-14T10:56:14.499Z,104.00
2022-12-14T10:57:09.742Z,115.23
2022-12-14T10:58:07.117Z,97.17
2022-12-14T10:59:00.600Z,96.44
2022-12-14T11:00:11.163Z,97.17
2022-12-14T11:00:52.559Z,118.16
2022-12-14T11:01:47.008Z,99.37
2022-12-14T11:02:42.642Z,99.37
2022-12-14T11:03:38.113Z,95.46
2022-12-14T11:04:33.359Z,89.84
2022-12-14T11:05:34.145Z,97.17
2022-12-14T11:06:25.423Z,105.22
2022-12-14T11:07:19.648Z,109.86
2022-12-14T11:08:15.163Z,107.18
2022-12-14T11:09:10.845Z,116.21
2022-12-14T11:10:06.271Z,107.42
2022-12-14T11:11:01.693Z,104.49
2022-12-14T11:11:57.391Z,103.27
2022-12-14T11:12:52.661Z,78.61
2022-12-14T11:13:48.165Z,107.67
2022-12-14T11:14:43.710Z,104.98
2022-12-14T11:15:39.112Z,123.05
2022-12-14T11:16:36.708Z,109.62
2022-12-14T11:17:30.033Z,110.35
2022-12-14T11:18:25.614Z,99.37
2022-12-14T11:19:21.092Z,119.14
2022-12-14T11:20:16.646Z,123.78
2022-12-14T11:21:12.008Z,116.21
2022-12-14T11:22:07.415Z,114.99
2022-12-14T11:23:02.890Z,113.77
2022-12-14T11:23:58.507Z,108.15
2022-12-14T11:24:54.016Z,118.16
2022-12-14T11:25:49.586Z,103.52
2022-12-14T11:26:45.179Z,89.60
2022-12-14T11:27:40.716Z,100.83
2022-12-14T11:28:37.715Z,110.11
2022-12-14T11:29:31.832Z,96.92
2022-12-14T11:30:27.403Z,96.68
2022-12-14T11:31:22.959Z,110.84
2022-12-14T11:32:18.368Z,99.12
2022-12-14T11:33:13.774Z,94.24
2022-12-14T11:34:09.160Z,109.13
2022-12-14T11:35:04.691Z,83.74
2022-12-14T11:36:00.204Z,118.65
2022-12-14T11:36:55.777Z,95.21
2022-12-14T11:37:51.230Z,119.14
2022-12-14T11:38:46.863Z,127.93
2022-12-14T11:39:42.310Z,97.41
2022-12-14T11:40:37.777Z,93.99
2022-12-14T11:41:33.531Z,121.58
2022-12-14T11:42:28.913Z,120.12
2022-12-14T11:43:24.399Z,96.92
2022-12-14T11:44:20.022Z,86.67
2022-12-14T11:45:15.703Z,85.21
2022-12-14T11:46:11.100Z,80.57
2022-12-14T11:47:06.625Z,95.46
2022-12-14T11:48:02.082Z,107.42
2022-12-14T11:48:57.570Z,113.28
2022-12-14T11:49:53.120Z,93.02
2022-12-14T11:50:48.614Z,88.38